Terminal Aerodrome Forecast
Issued by NWS Melbourne, FL

Home | Current Version | Previous Version | Text Only | Print | Product List | Glossary On
Versions: 1 2 3 4 5 6 7 8 9 10 11 12 13 14 15 16 17 18
000
FTUS42 KMLB 261120
TAFMLB
TAF
KMLB 261120Z 2612/2712 VRB04KT P6SM SCT025 SCT250
     FM261600 05006KT P6SM SCT025
     FM261800 08008KT P6SM VCTS SCT030CB BKN100
     FM262100 11008KT P6SM SCT030 BKN200
     FM270000 14005KT P6SM FEW030 SCT120 BKN250=

USA.gov is the U.S. government's official web portal to all federal, state and local government web resources and services.